sensor_id;sensor_type;location;lat;lon;timestamp;pressure;altitude;pressure_sealevel;temperature;humidity
62293;BME280;48292;47.724;18.992;2022-09-09T03:37:27;97184.6;;;14.06;100.0
62293;BME280;48292;47.724;18.992;2022-09-09T03:42:29;97184.6;;;14.06;100.0
62293;BME280;48292;47.724;18.992;2022-09-09T03:47:30;97180.59;;;14.18;100.0
62293;BME280;48292;47.724;18.992;2022-09-09T03:52:33;97192.78;;;14.32;100.0
62293;BME280;48292;47.724;18.992;2022-09-09T03:57:35;97192.78;;;14.32;100.0
62293;BME280;48292;47.724;18.992;2022-09-09T04:02:37;97187.05;;;14.24;100.0
62293;BME280;48292;47.724;18.992;2022-09-09T04:07:39;97187.05;;;14.24;100.0
62293;BME280;48292;47.724;18.992;2022-09-09T04:12:41;97187.8;;;14.32;100.0
62293;BME280;48292;47.724;18.992;2022-09-09T04:17:46;97187.8;;;14.32;100.0
62293;BME280;48292;47.724;18.992;2022-09-09T04:22:48;97186.13;;;14.37;100.0
62293;BME280;48292;47.724;18.992;2022-09-09T04:27:52;97186.13;;;14.37;100.0
62293;BME280;48292;47.724;18.992;2022-09-09T04:32:54;97189.06;;;14.36;100.0
62293;BME280;48292;47.724;18.992;2022-09-09T04:37:56;97189.06;;;14.36;100.0
62293;BME280;48292;47.724;18.992;2022-09-09T04:42:58;97177.64;;;14.49;100.0
62293;BME280;48292;47.724;18.992;2022-09-09T04:48:00;97177.64;;;14.49;100.0
62293;BME280;48292;47.724;18.992;2022-09-09T04:53:02;97168.83;;;14.52;100.0
62293;BME280;48292;47.724;18.992;2022-09-09T04:58:04;97168.83;;;14.52;100.0
62293;BME280;48292;47.724;18.992;2022-09-09T05:03:07;97176.58;;;14.61;100.0
62293;BME280;48292;47.724;18.992;2022-09-09T05:08:08;97178.14;;;14.59;100.0
62293;BME280;48292;47.724;18.992;2022-09-09T05:13:10;97178.14;;;14.59;100.0
62293;BME280;48292;47.724;18.992;2022-09-09T05:18:12;97199.9;;;14.59;100.0
62293;BME280;48292;47.724;18.992;2022-09-09T05:23:13;97199.9;;;14.59;100.0
62293;BME280;48292;47.724;18.992;2022-09-09T05:28:15;97200.1;;;14.61;100.0
62293;BME280;48292;47.724;18.992;2022-09-09T05:33:17;97200.1;;;14.61;100.0
62293;BME280;48292;47.724;18.992;2022-09-09T05:38:18;97198.43;;;14.69;100.0
62293;BME280;48292;47.724;18.992;2022-09-09T05:43:20;97198.43;;;14.69;100.0
62293;BME280;48292;47.724;18.992;2022-09-09T05:48:22;97190.91;;;14.82;100.0
62293;BME280;48292;47.724;18.992;2022-09-09T05:53:24;97190.91;;;14.82;100.0
62293;BME280;48292;47.724;18.992;2022-09-09T05:58:25;97184.32;;;15.01;100.0
62293;BME280;48292;47.724;18.992;2022-09-09T06:03:27;97184.32;;;15.01;100.0
62293;BME280;48292;47.724;18.992;2022-09-09T06:08:29;97185.47;;;15.17;100.0
62293;BME280;48292;47.724;18.992;2022-09-09T06:13:31;97185.47;;;15.17;100.0
62293;BME280;48292;47.724;18.992;2022-09-09T06:18:33;97185.22;;;15.35;100.0
62293;BME280;48292;47.724;18.992;2022-09-09T06:23:35;97194.59;;;15.48;99.34
62293;BME280;48292;47.724;18.992;2022-09-09T06:28:37;97194.59;;;15.48;99.34
62293;BME280;48292;47.724;18.992;2022-09-09T06:33:39;97202.52;;;15.6;98.68
62293;BME280;48292;47.724;18.992;2022-09-09T06:38:42;97202.52;;;15.6;98.68
62293;BME280;48292;47.724;18.992;2022-09-09T06:43:44;97202.14;;;15.66;97.69
62293;BME280;48292;47.724;18.992;2022-09-09T06:48:45;97202.14;;;15.66;97.69
62293;BME280;48292;47.724;18.992;2022-09-09T06:53:49;97203.0;;;15.76;98.98
62293;BME280;48292;47.724;18.992;2022-09-09T06:58:52;97203.0;;;15.76;98.98
62293;BME280;48292;47.724;18.992;2022-09-09T07:03:55;97203.3;;;15.69;97.34
62293;BME280;48292;47.724;18.992;2022-09-09T07:08:57;97203.3;;;15.69;97.34
62293;BME280;48292;47.724;18.992;2022-09-09T07:14:00;97223.19;;;15.55;98.22
62293;BME280;48292;47.724;18.992;2022-09-09T07:19:01;97223.19;;;15.55;98.22
62293;BME280;48292;47.724;18.992;2022-09-09T07:24:03;97221.16;;;15.66;98.86
62293;BME280;48292;47.724;18.992;2022-09-09T07:29:05;97221.16;;;15.66;98.86
62293;BME280;48292;47.724;18.992;2022-09-09T07:34:08;97224.42;;;15.76;100.0
62293;BME280;48292;47.724;18.992;2022-09-09T07:39:10;97220.63;;;16.41;89.39
62293;BME280;48292;47.724;18.992;2022-09-09T07:44:13;97220.63;;;16.41;89.39
62293;BME280;48292;47.724;18.992;2022-09-09T07:49:15;97235.91;;;16.84;83.76
62293;BME280;48292;47.724;18.992;2022-09-09T07:54:18;97235.91;;;16.84;83.76
62293;BME280;48292;47.724;18.992;2022-09-09T07:59:20;97230.4;;;17.11;81.24
62293;BME280;48292;47.724;18.992;2022-09-09T08:04:23;97230.4;;;17.11;81.24
62293;BME280;48292;47.724;18.992;2022-09-09T08:09:24;97244.16;;;17.45;81.95
62293;BME280;48292;47.724;18.992;2022-09-09T08:14:28;97244.16;;;17.45;81.95
62293;BME280;48292;47.724;18.992;2022-09-09T08:19:30;97242.25;;;17.78;77.69
62293;BME280;48292;47.724;18.992;2022-09-09T08:24:31;97242.25;;;17.78;77.69
62293;BME280;48292;47.724;18.992;2022-09-09T08:29:33;97242.55;;;18.11;75.65
62293;BME280;48292;47.724;18.992;2022-09-09T08:34:35;97242.55;;;18.11;75.65
62293;BME280;48292;47.724;18.992;2022-09-09T08:39:41;97230.72;;;18.32;72.57
62293;BME280;48292;47.724;18.992;2022-09-09T08:44:48;97230.72;;;18.32;72.57
62293;BME280;48292;47.724;18.992;2022-09-09T08:49:57;97212.08;;;18.81;71.36
62293;BME280;48292;47.724;18.992;2022-09-09T08:55:02;97226.48;;;19.3;70.99
62293;BME280;48292;47.724;18.992;2022-09-09T09:00:07;97226.48;;;19.3;70.99
62293;BME280;48292;47.724;18.992;2022-09-09T09:05:12;97236.67;;;19.29;68.55
62293;BME280;48292;47.724;18.992;2022-09-09T09:10:19;97236.67;;;19.29;68.55
62293;BME280;48292;47.724;18.992;2022-09-09T09:15:24;97233.45;;;20.22;64.74
62293;BME280;48292;47.724;18.992;2022-09-09T09:20:37;97233.45;;;20.22;64.74
62293;BME280;48292;47.724;18.992;2022-09-09T09:25:39;97244.63;;;21.05;59.72
62293;BME280;48292;47.724;18.992;2022-09-09T09:30:43;97244.63;;;21.05;59.72
62293;BME280;48292;47.724;18.992;2022-09-09T09:35:48;97233.56;;;22.28;54.24
62293;BME280;48292;47.724;18.992;2022-09-09T09:40:50;97233.56;;;22.28;54.24
62293;BME280;48292;47.724;18.992;2022-09-09T09:45:52;97224.05;;;23.01;54.07
62293;BME280;48292;47.724;18.992;2022-09-09T09:50:58;97224.05;;;23.01;54.07
62293;BME280;48292;47.724;18.992;2022-09-09T09:56:02;97213.0;;;23.84;53.7
62293;BME280;48292;47.724;18.992;2022-09-09T10:01:04;97213.0;;;23.84;53.7
62293;BME280;48292;47.724;18.992;2022-09-09T10:06:06;97219.0;;;23.55;50.45
62293;BME280;48292;47.724;18.992;2022-09-09T10:11:17;97220.03;;;24.13;49.11
62293;BME280;48292;47.724;18.992;2022-09-09T10:16:23;97220.03;;;24.13;49.11
62293;BME280;48292;47.724;18.992;2022-09-09T10:21:31;97216.98;;;23.58;52.25
62293;BME280;48292;47.724;18.992;2022-09-09T10:26:39;97216.98;;;23.58;52.25
62293;BME280;48292;47.724;18.992;2022-09-09T10:31:46;97220.94;;;23.51;51.3
62293;BME280;48292;47.724;18.992;2022-09-09T10:36:49;97220.94;;;23.51;51.3
62293;BME280;48292;47.724;18.992;2022-09-09T10:41:53;97215.56;;;22.75;50.72
62293;BME280;48292;47.724;18.992;2022-09-09T10:47:00;97215.56;;;22.75;50.72
62293;BME280;48292;47.724;18.992;2022-09-09T10:52:06;97223.55;;;22.8;50.42
62293;BME280;48292;47.724;18.992;2022-09-09T10:57:13;97223.55;;;22.8;50.42
62293;BME280;48292;47.724;18.992;2022-09-09T11:02:16;97218.88;;;23.42;50.57
62293;BME280;48292;47.724;18.992;2022-09-09T11:07:24;97218.88;;;23.42;50.57
62293;BME280;48292;47.724;18.992;2022-09-09T11:12:27;97211.33;;;24.26;42.5
62293;BME280;48292;47.724;18.992;2022-09-09T11:17:30;97215.58;;;24.99;47.35
62293;BME280;48292;47.724;18.992;2022-09-09T11:22:35;97215.58;;;24.99;47.35
62293;BME280;48292;47.724;18.992;2022-09-09T11:27:40;97212.55;;;23.18;47.06
62293;BME280;48292;47.724;18.992;2022-09-09T11:32:49;97212.55;;;23.18;47.06
62293;BME280;48292;47.724;18.992;2022-09-09T11:37:59;97208.73;;;23.43;45.29
62293;BME280;48292;47.724;18.992;2022-09-09T11:43:04;97208.73;;;23.43;45.29
62293;BME280;48292;47.724;18.992;2022-09-09T11:48:22;97206.68;;;24.13;46.31
62293;BME280;48292;47.724;18.992;2022-09-09T11:53:18;97206.68;;;24.13;46.31
62293;BME280;48292;47.724;18.992;2022-09-09T11:58:21;97187.26;;;22.73;47.21
62293;BME280;48292;47.724;18.992;2022-09-09T12:03:32;97187.26;;;22.73;47.21
62293;BME280;48292;47.724;18.992;2022-09-09T12:08:35;97188.89;;;22.5;47.77
62293;BME280;48292;47.724;18.992;2022-09-09T12:13:38;97188.89;;;22.5;47.77
62293;BME280;48292;47.724;18.992;2022-09-09T12:18:40;97181.86;;;23.95;44.88
62293;BME280;48292;47.724;18.992;2022-09-09T12:23:43;97185.39;;;24.76;42.06
62293;BME280;48292;47.724;18.992;2022-09-09T12:28:49;97185.39;;;24.76;42.06
62293;BME280;48292;47.724;18.992;2022-09-09T12:33:54;97179.63;;;24.53;39.78
62293;BME280;48292;47.724;18.992;2022-09-09T12:38:56;97179.63;;;24.53;39.78
62293;BME280;48292;47.724;18.992;2022-09-09T12:44:03;97173.09;;;25.7;37.85
62293;BME280;48292;47.724;18.992;2022-09-09T12:49:05;97173.09;;;25.7;37.85
62293;BME280;48292;47.724;18.992;2022-09-09T12:54:12;97167.14;;;25.59;36.87
62293;BME280;48292;47.724;18.992;2022-09-09T12:59:21;97167.14;;;25.59;36.87
62293;BME280;48292;47.724;18.992;2022-09-09T13:04:24;97148.36;;;26.6;36.87
62293;BME280;48292;47.724;18.992;2022-09-09T13:09:26;97148.36;;;26.6;36.87
62293;BME280;48292;47.724;18.992;2022-09-09T13:14:28;97131.39;;;26.26;38.02
62293;BME280;48292;47.724;18.992;2022-09-09T13:19:32;97131.39;;;26.26;38.02
62293;BME280;48292;47.724;18.992;2022-09-09T13:24:35;97125.88;;;26.21;37.78
62293;BME280;48292;47.724;18.992;2022-09-09T13:29:37;97112.59;;;26.31;37.68
62293;BME280;48292;47.724;18.992;2022-09-09T13:34:39;97112.59;;;26.31;37.68
62293;BME280;48292;47.724;18.992;2022-09-09T13:39:40;97117.45;;;25.18;37.73
62293;BME280;48292;47.724;18.992;2022-09-09T13:44:46;97117.45;;;25.18;37.73
62293;BME280;48292;47.724;18.992;2022-09-09T13:49:48;97125.58;;;25.04;38.61
62293;BME280;48292;47.724;18.992;2022-09-09T13:54:50;97125.58;;;25.04;38.61
62293;BME280;48292;47.724;18.992;2022-09-09T13:59:52;97124.45;;;24.49;37.9
62293;BME280;48292;47.724;18.992;2022-09-09T14:04:58;97124.45;;;24.49;37.9
62293;BME280;48292;47.724;18.992;2022-09-09T14:10:00;97113.03;;;24.37;35.91
62293;BME280;48292;47.724;18.992;2022-09-09T14:15:02;97113.03;;;24.37;35.91
62293;BME280;48292;47.724;18.992;2022-09-09T14:20:05;97092.66;;;26.11;35.37
62293;BME280;48292;47.724;18.992;2022-09-09T14:25:07;97092.66;;;26.11;35.37
62293;BME280;48292;47.724;18.992;2022-09-09T14:30:10;97085.38;;;25.51;35.2
62293;BME280;48292;47.724;18.992;2022-09-09T14:35:11;97085.38;;;25.51;35.2
62293;BME280;48292;47.724;18.992;2022-09-09T14:40:13;97075.75;;;25.75;32.58
62293;BME280;48292;47.724;18.992;2022-09-09T14:45:15;97075.7;;;24.84;37.86
62293;BME280;48292;47.724;18.992;2022-09-09T14:50:17;97075.7;;;24.84;37.86
62293;BME280;48292;47.724;18.992;2022-09-09T14:55:19;97062.42;;;23.92;38.19
62293;BME280;48292;47.724;18.992;2022-09-09T15:00:21;97062.42;;;23.92;38.19
62293;BME280;48292;47.724;18.992;2022-09-09T15:05:23;97070.56;;;24.14;41.46
62293;BME280;48292;47.724;18.992;2022-09-09T15:10:25;97070.56;;;24.14;41.46
62293;BME280;48292;47.724;18.992;2022-09-09T15:15:27;97069.23;;;25.65;37.2
62293;BME280;48292;47.724;18.992;2022-09-09T15:20:29;97069.23;;;25.65;37.2
62293;BME280;48292;47.724;18.992;2022-09-09T15:25:30;97085.09;;;25.07;39.44
62293;BME280;48292;47.724;18.992;2022-09-09T15:30:32;97085.09;;;25.07;39.44
62293;BME280;48292;47.724;18.992;2022-09-09T15:35:34;97089.11;;;23.69;41.65
62293;BME280;48292;47.724;18.992;2022-09-09T15:40:36;97089.11;;;23.69;41.65
62293;BME280;48292;47.724;18.992;2022-09-09T15:45:37;97083.48;;;22.97;49.37
62293;BME280;48292;47.724;18.992;2022-09-09T15:50:39;97083.48;;;22.97;49.37
62293;BME280;48292;47.724;18.992;2022-09-09T15:55:41;97085.63;;;23.07;44.64
62293;BME280;48292;47.724;18.992;2022-09-09T16:00:43;97083.68;;;22.31;56.88
62293;BME280;48292;47.724;18.992;2022-09-09T16:05:44;97083.68;;;22.31;56.88
62293;BME280;48292;47.724;18.992;2022-09-09T16:10:50;97094.29;;;21.57;59.21
62293;BME280;48292;47.724;18.992;2022-09-09T16:15:53;97094.29;;;21.57;59.21
62293;BME280;48292;47.724;18.992;2022-09-09T16:20:55;97104.84;;;21.26;60.93
62293;BME280;48292;47.724;18.992;2022-09-09T16:25:57;97104.84;;;21.26;60.93
62293;BME280;48292;47.724;18.992;2022-09-09T16:31:06;97104.07;;;20.84;58.24
62293;BME280;48292;47.724;18.992;2022-09-09T16:36:10;97104.07;;;20.84;58.24
62293;BME280;48292;47.724;18.992;2022-09-09T16:41:12;97107.09;;;20.48;60.18
62293;BME280;48292;47.724;18.992;2022-09-09T16:46:15;97107.09;;;20.48;60.18
62293;BME280;48292;47.724;18.992;2022-09-09T16:51:18;97104.58;;;20.19;57.06
62293;BME280;48292;47.724;18.992;2022-09-09T16:56:21;97104.58;;;20.19;57.06
62293;BME280;48292;47.724;18.992;2022-09-09T17:01:24;97096.47;;;19.95;61.35
62293;BME280;48292;47.724;18.992;2022-09-09T17:06:26;97108.03;;;19.71;58.0
62293;BME280;48292;47.724;18.992;2022-09-09T17:11:29;97108.03;;;19.71;58.0
62293;BME280;48292;47.724;18.992;2022-09-09T17:16:31;97111.66;;;19.37;61.51
62293;BME280;48292;47.724;18.992;2022-09-09T17:21:35;97111.66;;;19.37;61.51
62293;BME280;48292;47.724;18.992;2022-09-09T17:26:42;97113.27;;;19.02;58.96
62293;BME280;48292;47.724;18.992;2022-09-09T17:31:43;97113.27;;;19.02;58.96
62293;BME280;48292;47.724;18.992;2022-09-09T17:36:45;97118.09;;;18.7;66.54
62293;BME280;48292;47.724;18.992;2022-09-09T17:41:47;97118.09;;;18.7;66.54
62293;BME280;48292;47.724;18.992;2022-09-09T17:46:48;97125.58;;;18.53;63.3
62293;BME280;48292;47.724;18.992;2022-09-09T17:51:51;97125.58;;;18.53;63.3
62293;BME280;48292;47.724;18.992;2022-09-09T17:56:53;97124.05;;;18.66;63.42
62293;BME280;48292;47.724;18.992;2022-09-09T18:01:55;97124.05;;;18.66;63.42
62293;BME280;48292;47.724;18.992;2022-09-09T18:06:57;97142.66;;;18.35;66.87
62293;BME280;48292;47.724;18.992;2022-09-09T18:11:59;97142.66;;;18.35;66.87
62293;BME280;48292;47.724;18.992;2022-09-09T18:17:02;97156.97;;;18.11;62.72
62293;BME280;48292;47.724;18.992;2022-09-09T18:22:04;97150.07;;;18.02;68.68
62293;BME280;48292;47.724;18.992;2022-09-09T18:27:06;97150.07;;;18.02;68.68
62293;BME280;48292;47.724;18.992;2022-09-09T18:32:08;97140.03;;;18.01;67.7
62293;BME280;48292;47.724;18.992;2022-09-09T18:37:10;97140.03;;;18.01;67.7
62293;BME280;48292;47.724;18.992;2022-09-09T18:42:12;97129.86;;;17.89;70.17
62293;BME280;48292;47.724;18.992;2022-09-09T18:47:15;97129.86;;;17.89;70.17
62293;BME280;48292;47.724;18.992;2022-09-09T18:52:17;97136.62;;;17.72;72.32
62293;BME280;48292;47.724;18.992;2022-09-09T18:57:20;97136.62;;;17.72;72.32
62293;BME280;48292;47.724;18.992;2022-09-09T19:02:22;97145.95;;;17.44;69.92
62293;BME280;48292;47.724;18.992;2022-09-09T19:07:24;97145.95;;;17.44;69.92
62293;BME280;48292;47.724;18.992;2022-09-09T19:12:26;97146.44;;;17.52;73.29
62293;BME280;48292;47.724;18.992;2022-09-09T19:17:29;97146.44;;;17.52;73.29
62293;BME280;48292;47.724;18.992;2022-09-09T19:22:31;97125.88;;;17.92;64.18
62293;BME280;48292;47.724;18.992;2022-09-09T19:27:33;97125.88;;;17.92;64.18
62293;BME280;48292;47.724;18.992;2022-09-09T19:32:35;97132.48;;;17.95;69.23
62293;BME280;48292;47.724;18.992;2022-09-09T19:37:41;97138.92;;;17.87;70.38
62293;BME280;48292;47.724;18.992;2022-09-09T19:42:43;97138.92;;;17.87;70.38
62293;BME280;48292;47.724;18.992;2022-09-09T19:47:45;97154.1;;;18.2;77.08
62293;BME280;48292;47.724;18.992;2022-09-09T19:52:47;97154.1;;;18.2;77.08
62293;BME280;48292;47.724;18.992;2022-09-09T19:57:49;97143.06;;;18.25;79.71
62293;BME280;48292;47.724;18.992;2022-09-09T20:02:50;97143.06;;;18.25;79.71
62293;BME280;48292;47.724;18.992;2022-09-09T20:07:56;97125.63;;;18.64;81.5
62293;BME280;48292;47.724;18.992;2022-09-09T20:12:58;97125.63;;;18.64;81.5
62293;BME280;48292;47.724;18.992;2022-09-09T20:18:00;97143.89;;;18.68;83.06
62293;BME280;48292;47.724;18.992;2022-09-09T20:23:01;97143.89;;;18.68;83.06
62293;BME280;48292;47.724;18.992;2022-09-09T20:28:03;97150.19;;;18.75;85.5
62293;BME280;48292;47.724;18.992;2022-09-09T20:33:05;97150.19;;;18.75;85.5
62293;BME280;48292;47.724;18.992;2022-09-09T20:38:07;97152.03;;;18.78;85.19
62293;BME280;48292;47.724;18.992;2022-09-09T20:43:09;97154.72;;;18.74;86.66
62293;BME280;48292;47.724;18.992;2022-09-09T20:48:11;97154.72;;;18.74;86.66
62293;BME280;48292;47.724;18.992;2022-09-09T20:53:13;97154.72;;;18.74;86.66
62293;BME280;48292;47.724;18.992;2022-09-09T20:58:15;97154.72;;;18.74;86.66
62293;BME280;48292;47.724;18.992;2022-09-09T21:03:17;97154.72;;;18.74;86.66
62293;BME280;48292;47.724;18.992;2022-09-09T21:08:18;97154.72;;;18.74;86.66
62293;BME280;48292;47.724;18.992;2022-09-09T21:13:20;97154.72;;;18.74;86.66
62293;BME280;48292;47.724;18.992;2022-09-09T21:18:22;97154.72;;;18.74;86.66
62293;BME280;48292;47.724;18.992;2022-09-09T21:23:23;97154.72;;;18.74;86.66
62293;BME280;48292;47.724;18.992;2022-09-09T21:28:25;97154.72;;;18.74;86.66
62293;BME280;48292;47.724;18.992;2022-09-09T21:33:27;97154.72;;;18.74;86.66
62293;BME280;48292;47.724;18.992;2022-09-09T21:38:30;97154.72;;;18.74;86.66
